createdAt,value
2022-08-01T00:01:41.191Z,3.10
2022-08-01T00:03:44.243Z,2.80
2022-08-01T00:05:47.617Z,2.93
2022-08-01T00:07:50.669Z,2.47
2022-08-01T00:09:55.669Z,3.00
2022-08-01T00:12:09.350Z,3.30
2022-08-01T00:14:12.756Z,3.00
2022-08-01T00:16:16.729Z,3.10
2022-08-01T00:18:19.769Z,3.40
2022-08-01T00:20:22.842Z,3.00
2022-08-01T00:22:25.941Z,3.07
2022-08-01T00:24:29.075Z,3.63
2022-08-01T00:26:33.694Z,2.97
2022-08-01T00:28:36.940Z,3.47
2022-08-01T00:30:39.977Z,3.00
2022-08-01T00:32:43.499Z,2.83
2022-08-01T00:34:46.536Z,3.43
2022-08-01T00:36:49.582Z,3.10
2022-08-01T00:38:52.581Z,3.13
2022-08-01T00:40:55.715Z,3.50
2022-08-01T00:43:00.282Z,3.27
2022-08-01T00:45:03.300Z,3.43
2022-08-01T00:47:06.465Z,3.10
2022-08-01T00:49:10.521Z,3.20
2022-08-01T00:51:15.020Z,3.20
2022-08-01T00:53:18.881Z,3.13
2022-08-01T00:55:22.350Z,3.40
2022-08-01T00:58:03.109Z,3.10
2022-08-01T00:59:50.434Z,3.20
2022-08-01T01:01:53.842Z,3.50
2022-08-01T01:03:59.194Z,3.17
2022-08-01T01:06:14.003Z,3.13
2022-08-01T01:08:21.460Z,3.20
2022-08-01T01:10:34.144Z,3.73
2022-08-01T01:12:41.748Z,3.20
2022-08-01T01:14:49.204Z,3.63
2022-08-01T01:16:54.787Z,3.40
2022-08-01T01:19:00.326Z,3.23
2022-08-01T01:21:11.818Z,3.10
2022-08-01T01:23:26.655Z,3.60
2022-08-01T01:25:47.362Z,3.60
2022-08-01T01:27:54.055Z,3.10
2022-08-01T01:30:01.129Z,3.37
2022-08-01T01:32:08.795Z,3.17
2022-08-01T01:34:13.900Z,3.67
2022-08-01T01:36:18.868Z,3.53
2022-08-01T01:38:23.791Z,3.43
2022-08-01T01:40:28.015Z,3.80
2022-08-01T01:42:32.494Z,3.53
2022-08-01T01:44:36.176Z,3.93
2022-08-01T01:46:41.250Z,3.80
2022-08-01T01:48:46.016Z,3.80
2022-08-01T01:50:50.579Z,3.70
2022-08-01T01:52:54.571Z,3.60
2022-08-01T01:54:58.313Z,3.17
2022-08-01T01:57:03.060Z,3.83
2022-08-01T01:59:06.289Z,3.50
2022-08-01T02:01:14.795Z,3.50
2022-08-01T02:03:20.184Z,4.00
2022-08-01T02:05:23.401Z,3.37
2022-08-01T02:07:27.264Z,3.50
2022-08-01T02:09:31.408Z,4.10
2022-08-01T02:11:34.958Z,4.20
2022-08-01T02:13:39.356Z,4.40
2022-08-01T02:15:59.732Z,3.80
2022-08-01T02:18:04.321Z,4.27
2022-08-01T02:20:09.794Z,3.73
2022-08-01T02:22:16.376Z,3.97
2022-08-01T02:24:23.433Z,4.20
2022-08-01T02:26:33.908Z,3.57
2022-08-01T02:28:39.904Z,3.50
2022-08-01T02:30:46.483Z,3.67
2022-08-01T02:32:52.067Z,3.67
2022-08-01T02:34:55.991Z,3.57
2022-08-01T02:37:01.331Z,4.03
2022-08-01T02:39:08.611Z,3.77
2022-08-01T02:41:16.370Z,4.07
2022-08-01T02:43:22.809Z,3.77
2022-08-01T02:45:27.788Z,3.60
2022-08-01T02:47:31.534Z,3.40
2022-08-01T02:49:37.782Z,3.90
2022-08-01T02:51:42.195Z,4.00
2022-08-01T02:53:48.230Z,4.10
2022-08-01T02:55:52.118Z,3.90
2022-08-01T02:57:56.896Z,4.10
2022-08-01T03:00:04.140Z,3.90
2022-08-01T03:02:08.230Z,4.57
2022-08-01T03:04:13.157Z,4.40
2022-08-01T03:06:17.674Z,3.70
2022-08-01T03:08:22.181Z,4.10
2022-08-01T03:10:27.462Z,4.37
2022-08-01T03:12:32.384Z,3.70
2022-08-01T03:14:37.731Z,3.70
2022-08-01T03:16:42.908Z,3.77
2022-08-01T03:18:47.057Z,3.97
2022-08-01T03:20:51.188Z,4.00
2022-08-01T03:22:55.092Z,3.77
2022-08-01T03:25:00.222Z,4.23
2022-08-01T03:27:05.728Z,4.43
2022-08-01T03:29:11.246Z,4.17
2022-08-01T03:31:14.845Z,3.80
2022-08-01T03:33:17.995Z,4.07
2022-08-01T03:35:21.428Z,3.60
2022-08-01T03:37:26.833Z,4.40
2022-08-01T03:39:37.005Z,4.20
2022-08-01T03:41:41.791Z,4.20
2022-08-01T03:43:50.396Z,3.93
2022-08-01T03:45:54.384Z,4.23
2022-08-01T03:48:02.083Z,3.80
2022-08-01T03:50:10.635Z,3.90
2022-08-01T03:52:16.145Z,4.20
2022-08-01T03:54:22.825Z,4.40
2022-08-01T03:56:26.325Z,5.00
2022-08-01T03:58:29.852Z,4.40
2022-08-01T04:00:34.863Z,4.07
2022-08-01T04:02:41.088Z,4.53
2022-08-01T04:04:44.588Z,4.20
2022-08-01T04:06:51.258Z,3.93
2022-08-01T04:09:00.399Z,4.13
2022-08-01T04:11:03.527Z,4.20
2022-08-01T04:13:06.666Z,4.60
2022-08-01T04:15:10.322Z,3.83
2022-08-01T04:17:14.780Z,4.63
2022-08-01T04:19:17.997Z,4.53
2022-08-01T04:21:25.100Z,4.90
2022-08-01T04:23:30.122Z,4.70
2022-08-01T04:25:36.183Z,4.83
2022-08-01T04:27:50.884Z,4.77
2022-08-01T04:29:55.632Z,4.93
2022-08-01T04:31:59.111Z,4.90
2022-08-01T04:34:05.839Z,4.67
2022-08-01T04:36:10.488Z,4.60
2022-08-01T04:38:17.789Z,4.93
2022-08-01T04:40:22.826Z,5.00
2022-08-01T04:42:30.373Z,5.17
2022-08-01T04:44:36.789Z,5.07
2022-08-01T04:46:40.057Z,6.47
2022-08-01T04:48:43.540Z,5.70
2022-08-01T04:50:48.122Z,6.07
2022-08-01T04:52:52.303Z,5.17
2022-08-01T04:54:55.622Z,5.30
2022-08-01T04:57:00.789Z,4.87
2022-08-01T04:59:21.355Z,5.43
2022-08-01T05:01:24.439Z,4.87
2022-08-01T05:03:27.614Z,4.53
2022-08-01T05:05:31.513Z,4.33
2022-08-01T05:07:45.201Z,4.60
2022-08-01T05:09:48.709Z,4.67
2022-08-01T05:11:51.792Z,5.13
2022-08-01T05:13:55.284Z,4.97
2022-08-01T05:15:58.410Z,4.40
2022-08-01T05:18:02.727Z,4.70
2022-08-01T05:20:09.461Z,5.30
2022-08-01T05:22:12.722Z,4.70
2022-08-01T05:24:17.368Z,5.10
2022-08-01T05:26:20.514Z,4.80
2022-08-01T05:28:24.230Z,4.70
2022-08-01T05:30:27.418Z,5.00
2022-08-01T05:32:31.231Z,4.57
2022-08-01T05:34:34.242Z,4.90
2022-08-01T05:36:38.602Z,6.07
2022-08-01T05:38:42.117Z,5.03
2022-08-01T05:40:46.707Z,6.50
2022-08-01T05:42:49.683Z,5.27
2022-08-01T05:44:52.955Z,4.83
2022-08-01T05:46:56.155Z,5.10
2022-08-01T05:48:59.537Z,4.90
2022-08-01T05:51:02.688Z,5.07
2022-08-01T05:53:05.768Z,5.40
2022-08-01T05:55:10.282Z,5.40
2022-08-01T05:57:15.354Z,5.23
2022-08-01T05:59:18.484Z,5.13
2022-08-01T06:01:22.559Z,4.90
2022-08-01T06:03:25.629Z,4.97
2022-08-01T06:05:28.715Z,5.00
2022-08-01T06:07:31.837Z,4.67
2022-08-01T06:09:34.884Z,4.87
2022-08-01T06:11:38.032Z,4.77
2022-08-01T06:13:44.910Z,4.93
2022-08-01T06:15:52.305Z,5.10
2022-08-01T06:17:55.554Z,4.70
2022-08-01T06:19:58.745Z,5.00
2022-08-01T06:22:01.805Z,4.73
2022-08-01T06:24:05.717Z,4.40
2022-08-01T06:26:08.800Z,4.50
2022-08-01T06:28:11.792Z,4.20
2022-08-01T06:30:16.467Z,4.17
2022-08-01T06:32:26.361Z,4.50
2022-08-01T06:34:30.809Z,4.07
2022-08-01T06:36:33.904Z,4.43
2022-08-01T06:38:37.053Z,4.20
2022-08-01T06:40:40.222Z,4.30
2022-08-01T06:42:43.452Z,4.57
2022-08-01T06:44:46.713Z,4.13
2022-08-01T06:46:51.175Z,3.87
2022-08-01T06:48:54.245Z,4.00
2022-08-01T06:51:09.616Z,4.10
2022-08-01T06:53:12.658Z,4.00
2022-08-01T06:55:15.861Z,4.40
2022-08-01T06:57:19.052Z,4.03
2022-08-01T06:59:22.058Z,3.60
2022-08-01T07:01:25.158Z,3.50
2022-08-01T07:03:53.320Z,9.20
2022-08-01T07:05:52.696Z,4.17
2022-08-01T07:07:56.330Z,3.97
2022-08-01T07:09:59.389Z,3.80
2022-08-01T07:12:02.824Z,3.97
2022-08-01T07:14:06.090Z,3.83
2022-08-01T07:16:09.179Z,3.77
2022-08-01T07:18:12.237Z,3.83
2022-08-01T07:20:16.832Z,4.30
2022-08-01T07:22:23.610Z,3.73
2022-08-01T07:24:26.994Z,3.97
2022-08-01T07:26:32.144Z,3.97
2022-08-01T07:28:35.262Z,3.90
2022-08-01T07:30:47.287Z,4.00
2022-08-01T07:32:50.351Z,3.67
2022-08-01T07:34:53.435Z,3.70
2022-08-01T07:36:57.887Z,4.00
2022-08-01T07:39:00.965Z,3.83
2022-08-01T07:41:04.493Z,3.53
2022-08-01T07:43:07.626Z,2.43
2022-08-01T07:45:11.692Z,2.30
2022-08-01T07:47:15.017Z,3.10
2022-08-01T07:49:18.368Z,2.37
2022-08-01T07:51:21.509Z,2.57
2022-08-01T07:53:25.925Z,2.60
2022-08-01T07:55:28.963Z,2.33
2022-08-01T07:57:32.246Z,2.83
2022-08-01T07:59:35.489Z,2.83
2022-08-01T08:01:38.590Z,2.67
2022-08-01T08:03:41.740Z,2.70
2022-08-01T08:05:58.786Z,2.83
2022-08-01T08:08:03.334Z,2.60
2022-08-01T08:10:08.777Z,2.67
2022-08-01T08:12:13.086Z,2.40
2022-08-01T08:14:16.297Z,3.00
2022-08-01T08:16:19.509Z,2.70
2022-08-01T08:18:22.774Z,2.80
2022-08-01T08:20:28.073Z,2.30
2022-08-01T08:22:31.291Z,2.80
2022-08-01T08:24:34.335Z,2.03
2022-08-01T08:26:38.750Z,2.40
2022-08-01T08:28:43.426Z,2.33
2022-08-01T08:30:46.579Z,2.53
2022-08-01T08:32:49.878Z,3.17
2022-08-01T08:34:52.944Z,2.60
2022-08-01T08:36:57.093Z,2.70
2022-08-01T08:39:02.934Z,2.67
2022-08-01T08:41:06.397Z,2.50
2022-08-01T08:43:11.065Z,2.37
2022-08-01T08:45:14.584Z,2.53
2022-08-01T08:47:20.598Z,2.43
2022-08-01T08:49:35.827Z,2.80
2022-08-01T08:51:41.922Z,2.60
2022-08-01T08:53:45.653Z,2.60
2022-08-01T08:55:55.552Z,2.70
2022-08-01T08:58:01.713Z,2.57
2022-08-01T09:00:07.864Z,2.57
2022-08-01T09:02:12.417Z,2.17
2022-08-01T09:04:16.201Z,2.50
2022-08-01T09:06:19.491Z,2.60
2022-08-01T09:08:22.702Z,2.47
2022-08-01T09:10:25.941Z,2.30
2022-08-01T09:12:28.952Z,2.40
2022-08-01T09:14:32.475Z,2.73
2022-08-01T09:16:38.959Z,2.63
2022-08-01T09:18:44.600Z,2.97
2022-08-01T09:20:47.648Z,2.80
2022-08-01T09:22:50.713Z,2.80
2022-08-01T09:25:01.489Z,2.60
2022-08-01T09:27:18.252Z,2.67
2022-08-01T09:29:37.719Z,2.57
2022-08-01T09:31:47.165Z,3.03
2022-08-01T09:33:53.129Z,2.60
2022-08-01T09:35:57.555Z,2.50
2022-08-01T09:38:15.465Z,2.40
2022-08-01T09:40:18.814Z,2.40
2022-08-01T09:42:28.683Z,2.47
2022-08-01T09:44:42.387Z,2.77
2022-08-01T09:46:53.291Z,2.60
2022-08-01T09:49:01.313Z,2.60
2022-08-01T09:51:09.441Z,2.53
2022-08-01T09:53:29.818Z,2.60
2022-08-01T09:55:33.670Z,2.83
2022-08-01T09:57:36.758Z,2.47
2022-08-01T09:59:57.685Z,2.50
2022-08-01T10:02:03.104Z,2.40
2022-08-01T10:04:11.000Z,2.70
2022-08-01T10:06:25.029Z,2.90
2022-08-01T10:08:29.173Z,2.70
2022-08-01T10:10:33.452Z,2.80
2022-08-01T10:12:36.754Z,3.50
2022-08-01T10:14:41.287Z,2.63
2022-08-01T10:16:44.934Z,2.77
2022-08-01T10:18:50.745Z,3.03
2022-08-01T10:20:56.348Z,3.13
2022-08-01T10:23:05.916Z,3.70
2022-08-01T10:25:10.974Z,2.80
2022-08-01T10:27:24.464Z,2.83
2022-08-01T10:30:05.937Z,2.67
2022-08-01T10:32:10.282Z,3.30
2022-08-01T10:34:16.282Z,3.20
2022-08-01T10:36:22.641Z,2.83
2022-08-01T10:38:26.131Z,2.90
2022-08-01T10:40:30.983Z,3.07
2022-08-01T10:42:35.567Z,3.10
2022-08-01T10:44:40.313Z,3.00
2022-08-01T10:46:47.526Z,3.07
2022-08-01T10:48:56.934Z,3.00
2022-08-01T10:51:03.886Z,3.33
2022-08-01T10:53:16.218Z,3.13
2022-08-01T10:55:20.015Z,3.67
2022-08-01T10:57:27.530Z,3.13
2022-08-01T10:59:49.875Z,3.00
2022-08-01T11:01:59.824Z,3.23
2022-08-01T11:04:13.940Z,3.40
2022-08-01T11:06:22.970Z,3.30
2022-08-01T11:08:26.887Z,3.23
2022-08-01T11:10:36.002Z,3.10
2022-08-01T11:12:41.017Z,2.97
2022-08-01T11:15:29.211Z,3.00
2022-08-01T11:17:37.778Z,2.73
2022-08-01T11:20:08.831Z,2.37
2022-08-01T11:22:13.248Z,2.00
2022-08-01T11:24:16.371Z,2.37
2022-08-01T11:26:29.295Z,2.67
2022-08-01T11:28:37.000Z,2.50
2022-08-01T11:30:45.536Z,3.07
2022-08-01T11:33:10.585Z,3.20
2022-08-01T11:35:12.094Z,2.80
2022-08-01T11:37:30.703Z,2.80
2022-08-01T11:39:38.670Z,2.60
2022-08-01T11:41:44.262Z,2.77
2022-08-01T11:43:58.176Z,2.43
2022-08-01T11:46:02.900Z,2.93
2022-08-01T11:48:19.730Z,2.93
2022-08-01T11:50:43.403Z,2.40
2022-08-01T11:52:48.034Z,2.37
2022-08-01T11:54:53.300Z,2.30
2022-08-01T11:56:57.781Z,2.23
2022-08-01T11:59:01.529Z,2.70
2022-08-01T12:01:08.239Z,2.30
2022-08-01T12:03:15.200Z,2.03
2022-08-01T12:05:28.769Z,2.23
2022-08-01T12:07:35.837Z,2.03
2022-08-01T12:09:40.544Z,2.70
2022-08-01T12:11:43.836Z,2.20
2022-08-01T12:13:47.994Z,2.37
2022-08-01T12:15:56.469Z,2.50
2022-08-01T12:18:01.951Z,2.40
2022-08-01T12:20:07.303Z,2.57
2022-08-01T12:22:13.075Z,2.50
2022-08-01T12:24:24.185Z,2.20
2022-08-01T12:26:42.105Z,2.50
2022-08-01T12:28:45.297Z,2.00
2022-08-01T12:30:50.203Z,2.20
2022-08-01T12:32:54.701Z,2.30
2022-08-01T12:34:58.118Z,2.50
2022-08-01T12:37:04.519Z,2.47
2022-08-01T12:39:08.522Z,2.70
2022-08-01T12:41:13.208Z,2.40
2022-08-01T12:43:27.300Z,2.90
2022-08-01T12:45:34.725Z,2.60
2022-08-01T12:47:38.696Z,2.50
2022-08-01T12:49:43.844Z,2.83
2022-08-01T12:51:57.496Z,3.53
2022-08-01T12:54:01.252Z,2.80
2022-08-01T12:56:04.335Z,2.40
2022-08-01T12:58:11.504Z,2.00
2022-08-01T13:00:23.846Z,2.10
2022-08-01T13:02:34.331Z,2.53
2022-08-01T13:04:51.264Z,2.30
2022-08-01T13:06:55.950Z,2.33
2022-08-01T13:09:07.925Z,2.43
2022-08-01T13:11:15.545Z,2.40
2022-08-01T13:13:27.853Z,2.57
2022-08-01T13:15:35.537Z,2.30
2022-08-01T13:17:39.830Z,2.57
2022-08-01T13:19:47.722Z,2.30
2022-08-01T13:21:57.906Z,4.87
2022-08-01T13:24:06.180Z,2.30
2022-08-01T13:26:09.449Z,1.90
2022-08-01T13:28:20.518Z,1.90
2022-08-01T13:30:24.394Z,2.10
2022-08-01T13:32:32.409Z,2.20
2022-08-01T13:34:36.512Z,2.20
2022-08-01T13:36:42.119Z,2.17
2022-08-01T13:39:07.369Z,2.20
2022-08-01T13:41:10.678Z,2.10
2022-08-01T13:43:13.856Z,3.27
2022-08-01T13:45:17.027Z,2.97
2022-08-01T13:47:31.905Z,1.73
2022-08-01T13:49:38.330Z,2.07
2022-08-01T13:51:44.183Z,2.07
2022-08-01T13:53:47.671Z,2.30
2022-08-01T13:55:50.796Z,2.10
2022-08-01T13:57:54.145Z,2.57
2022-08-01T14:00:00.646Z,2.50
2022-08-01T14:02:04.253Z,2.20
2022-08-01T14:04:07.617Z,2.20
2022-08-01T14:06:12.825Z,2.33
2022-08-01T14:08:15.971Z,2.60
2022-08-01T14:10:20.779Z,1.97
2022-08-01T14:12:24.431Z,2.20
2022-08-01T14:14:28.152Z,2.40
2022-08-01T14:16:31.308Z,1.60
2022-08-01T14:18:34.549Z,3.10
2022-08-01T14:20:41.714Z,2.87
2022-08-01T14:22:46.202Z,2.27
2022-08-01T14:24:50.090Z,1.93
2022-08-01T14:26:53.230Z,2.50
2022-08-01T14:28:56.427Z,2.67
2022-08-01T14:31:00.262Z,2.23
2022-08-01T14:33:03.357Z,2.10
2022-08-01T14:35:07.655Z,2.53
2022-08-01T14:37:10.783Z,2.67
2022-08-01T14:39:15.374Z,2.80
2022-08-01T14:41:19.161Z,2.90
2022-08-01T14:43:28.210Z,2.47
2022-08-01T14:45:35.535Z,2.80
2022-08-01T14:47:38.917Z,2.60
2022-08-01T14:49:42.180Z,2.13
2022-08-01T14:51:48.832Z,2.80
2022-08-01T14:53:53.293Z,2.70
2022-08-01T14:55:57.940Z,2.57
2022-08-01T14:58:01.113Z,2.60
2022-08-01T15:00:05.949Z,2.30
2022-08-01T15:02:11.506Z,2.60
2022-08-01T15:04:15.166Z,2.77
2022-08-01T15:06:18.567Z,2.37
2022-08-01T15:08:21.621Z,5.63
2022-08-01T15:10:24.753Z,2.53
2022-08-01T15:12:39.742Z,2.77
2022-08-01T15:14:52.413Z,2.50
2022-08-01T15:16:55.549Z,2.20
2022-08-01T15:18:58.679Z,2.43
2022-08-01T15:21:01.850Z,2.60
2022-08-01T15:23:05.022Z,1.90
2022-08-01T15:25:08.653Z,1.97
2022-08-01T15:27:12.354Z,2.20
2022-08-01T15:29:16.801Z,2.30
2022-08-01T15:31:19.954Z,2.00
2022-08-01T15:33:23.179Z,1.80
2022-08-01T15:35:26.332Z,2.20
2022-08-01T15:37:29.753Z,2.10
2022-08-01T15:39:34.006Z,2.30
2022-08-01T15:41:37.145Z,2.23
2022-08-01T15:43:44.201Z,2.40
2022-08-01T15:45:49.948Z,2.23
2022-08-01T15:47:52.989Z,2.40
2022-08-01T15:50:00.364Z,2.37
2022-08-01T15:52:04.422Z,1.90
2022-08-01T15:54:12.794Z,2.00
2022-08-01T15:56:17.758Z,2.70
2022-08-01T15:58:21.163Z,2.33
2022-08-01T16:00:24.501Z,2.07
2022-08-01T16:02:40.751Z,2.20
2022-08-01T16:04:43.947Z,2.17
2022-08-01T16:06:47.152Z,1.70
2022-08-01T16:08:50.331Z,2.17
2022-08-01T16:10:53.436Z,2.60
2022-08-01T16:12:56.614Z,2.40
2022-08-01T16:15:02.757Z,1.87
2022-08-01T16:17:05.956Z,2.20
2022-08-01T16:19:10.597Z,1.90
2022-08-01T16:21:23.936Z,2.00
2022-08-01T16:23:27.172Z,2.10
2022-08-01T16:25:30.334Z,1.90
2022-08-01T16:27:33.392Z,2.10
2022-08-01T16:29:39.762Z,2.20
2022-08-01T16:32:02.190Z,1.80
2022-08-01T16:34:06.325Z,2.00
2022-08-01T16:36:15.921Z,2.20
2022-08-01T16:38:22.163Z,2.00
2022-08-01T16:40:25.464Z,1.90
2022-08-01T16:42:29.568Z,4.63
2022-08-01T16:44:33.886Z,2.80
2022-08-01T16:46:37.539Z,1.90
2022-08-01T16:48:41.510Z,1.93
2022-08-01T16:50:44.923Z,1.80
2022-08-01T16:52:49.551Z,1.83
2022-08-01T16:54:52.810Z,1.90
2022-08-01T16:57:08.373Z,1.93
2022-08-01T16:59:11.968Z,1.77
2022-08-01T17:01:56.234Z,1.83
2022-08-01T17:03:51.209Z,1.93
2022-08-01T17:05:56.963Z,2.07
2022-08-01T17:08:01.967Z,2.10
2022-08-01T17:10:05.736Z,2.07
2022-08-01T17:12:10.604Z,1.80
2022-08-01T17:14:13.748Z,1.90
2022-08-01T17:16:16.898Z,1.70
2022-08-01T17:18:20.332Z,1.80
2022-08-01T17:20:23.665Z,1.90
2022-08-01T17:22:26.900Z,1.70
2022-08-01T17:24:31.499Z,4.00
2022-08-01T17:26:34.708Z,2.40
2022-08-01T17:28:37.918Z,1.90
2022-08-01T17:30:41.044Z,1.90
2022-08-01T17:32:45.335Z,1.67
2022-08-01T17:34:48.418Z,1.87
2022-08-01T17:36:51.675Z,2.17
2022-08-01T17:38:54.821Z,2.20
2022-08-01T17:40:59.266Z,2.10
2022-08-01T17:43:02.248Z,2.23
2022-08-01T17:45:27.370Z,1.70
2022-08-01T17:47:49.930Z,1.77
2022-08-01T17:49:55.289Z,1.57
2022-08-01T17:51:58.896Z,1.60
2022-08-01T17:54:02.070Z,1.70
2022-08-01T17:56:06.866Z,1.60
2022-08-01T17:58:09.945Z,1.67
2022-08-01T18:00:14.247Z,1.80
2022-08-01T18:02:17.430Z,1.90
2022-08-01T18:04:20.654Z,1.90
2022-08-01T18:06:24.605Z,1.93
2022-08-01T18:08:29.932Z,2.20
2022-08-01T18:10:33.684Z,2.10
2022-08-01T18:12:38.226Z,1.60
2022-08-01T18:14:43.953Z,1.70
2022-08-01T18:16:47.121Z,1.70
2022-08-01T18:18:50.271Z,1.70
2022-08-01T18:20:53.367Z,1.77
2022-08-01T18:22:57.483Z,1.60
2022-08-01T18:25:03.876Z,1.60
2022-08-01T18:27:11.792Z,1.63
2022-08-01T18:29:16.384Z,1.70
2022-08-01T18:31:26.461Z,1.50
2022-08-01T18:33:29.757Z,1.80
2022-08-01T18:35:52.408Z,1.70
2022-08-01T18:37:57.240Z,1.70
2022-08-01T18:40:01.948Z,1.80
2022-08-01T18:42:07.096Z,1.50
2022-08-01T18:44:10.483Z,2.00
2022-08-01T18:46:15.010Z,1.80
2022-08-01T18:48:18.089Z,1.53
2022-08-01T18:50:21.143Z,1.50
2022-08-01T18:52:28.479Z,1.90
2022-08-01T18:54:34.865Z,1.90
2022-08-01T18:56:37.926Z,1.60
2022-08-01T18:58:41.726Z,1.60
2022-08-01T19:00:44.944Z,2.13
2022-08-01T19:02:49.479Z,1.80
2022-08-01T19:04:53.926Z,1.60
2022-08-01T19:06:57.013Z,1.93
2022-08-01T19:09:02.496Z,2.00
2022-08-01T19:11:05.898Z,1.50
2022-08-01T19:13:09.079Z,1.80
2022-08-01T19:15:12.368Z,1.80
2022-08-01T19:17:16.011Z,1.60
2022-08-01T19:19:27.362Z,1.70
2022-08-01T19:21:31.398Z,2.00
2022-08-01T19:23:52.062Z,1.50
2022-08-01T19:25:57.301Z,1.77
2022-08-01T19:28:01.101Z,1.97
2022-08-01T19:30:05.733Z,1.80
2022-08-01T19:32:11.190Z,2.10
2022-08-01T19:34:14.753Z,1.90
2022-08-01T19:36:20.550Z,1.80
2022-08-01T19:38:23.675Z,1.60
2022-08-01T19:40:28.402Z,1.80
2022-08-01T19:42:31.802Z,1.83
2022-08-01T19:44:35.083Z,1.90
2022-08-01T19:46:40.279Z,2.20
2022-08-01T19:48:43.403Z,2.30
2022-08-01T19:50:47.749Z,2.27
2022-08-01T19:52:53.154Z,1.97
2022-08-01T19:54:57.598Z,2.20
2022-08-01T19:57:02.459Z,1.97
2022-08-01T19:59:08.016Z,2.50
2022-08-01T20:01:14.284Z,2.33
2022-08-01T20:03:19.529Z,2.47
2022-08-01T20:05:24.758Z,2.17
2022-08-01T20:07:29.400Z,2.33
2022-08-01T20:09:34.552Z,2.17
2022-08-01T20:11:38.059Z,2.17
2022-08-01T20:13:41.501Z,2.10
2022-08-01T20:15:45.769Z,1.90
2022-08-01T20:17:48.887Z,1.83
2022-08-01T20:19:52.151Z,1.70
2022-08-01T20:22:02.465Z,1.80
2022-08-01T20:24:10.089Z,1.90
2022-08-01T20:26:17.805Z,2.33
2022-08-01T20:28:23.586Z,2.10
2022-08-01T20:30:28.453Z,2.07
2022-08-01T20:32:34.022Z,3.20
2022-08-01T20:34:38.802Z,2.73
2022-08-01T20:36:42.253Z,2.40
2022-08-01T20:38:59.044Z,2.10
2022-08-01T20:41:04.296Z,2.40
2022-08-01T20:43:09.448Z,2.30
2022-08-01T20:45:18.088Z,2.40
2022-08-01T20:47:22.311Z,2.30
2022-08-01T20:49:26.555Z,2.63
2022-08-01T20:51:29.513Z,2.30
2022-08-01T20:53:34.935Z,2.33
2022-08-01T20:55:46.363Z,2.10
2022-08-01T20:57:52.271Z,2.40
2022-08-01T21:00:01.946Z,2.77
2022-08-01T21:02:10.190Z,2.33
2022-08-01T21:04:31.878Z,2.40
2022-08-01T21:06:37.845Z,1.90
2022-08-01T21:08:43.780Z,2.13
2022-08-01T21:10:47.197Z,2.20
2022-08-01T21:13:01.801Z,2.03
2022-08-01T21:15:07.184Z,2.30
2022-08-01T21:17:13.841Z,2.27
2022-08-01T21:19:21.519Z,2.07
2022-08-01T21:21:28.155Z,2.27
2022-08-01T21:23:33.221Z,2.60
2022-08-01T21:25:36.606Z,2.60
2022-08-01T21:27:41.169Z,2.50
2022-08-01T21:29:45.572Z,2.03
2022-08-01T21:32:10.752Z,2.10
2022-08-01T21:34:14.345Z,2.30
2022-08-01T21:36:19.485Z,2.23
2022-08-01T21:38:23.384Z,2.10
2022-08-01T21:40:27.662Z,2.10
2022-08-01T21:42:30.717Z,1.90
2022-08-01T21:44:34.184Z,2.00
2022-08-01T21:46:37.443Z,1.87
2022-08-01T21:48:42.726Z,1.73
2022-08-01T21:50:50.467Z,1.90
2022-08-01T21:53:05.194Z,1.50
2022-08-01T21:55:18.970Z,1.77
2022-08-01T21:57:50.936Z,1.60
2022-08-01T22:00:00.015Z,1.80
2022-08-01T22:02:04.949Z,1.90
2022-08-01T22:04:15.010Z,2.00
2022-08-01T22:06:20.347Z,1.63
2022-08-01T22:08:29.584Z,1.70
2022-08-01T22:10:32.815Z,1.50
2022-08-01T22:12:36.663Z,1.70
2022-08-01T22:14:44.045Z,1.47
2022-08-01T22:16:47.241Z,1.67
2022-08-01T22:18:50.437Z,1.90
2022-08-01T22:20:55.205Z,3.13
2022-08-01T22:22:58.744Z,3.10
2022-08-01T22:25:01.925Z,3.30
2022-08-01T22:27:05.880Z,2.17
2022-08-01T22:29:09.170Z,1.70
2022-08-01T22:31:12.319Z,1.87
2022-08-01T22:33:17.648Z,1.83
2022-08-01T22:35:20.982Z,1.80
2022-08-01T22:37:57.173Z,1.70
2022-08-01T22:39:48.588Z,1.97
2022-08-01T22:42:01.395Z,1.83
2022-08-01T22:44:10.117Z,1.90
2022-08-01T22:46:23.333Z,2.10
2022-08-01T22:48:31.427Z,2.10
2022-08-01T22:50:44.186Z,1.97
2022-08-01T22:52:56.118Z,2.20
2022-08-01T22:55:02.937Z,1.87
2022-08-01T22:57:08.168Z,1.73
2022-08-01T22:59:16.268Z,1.73
2022-08-01T23:01:22.701Z,2.10
2022-08-01T23:03:29.156Z,1.60
2022-08-01T23:05:37.081Z,1.77
2022-08-01T23:07:41.268Z,1.80
2022-08-01T23:09:54.361Z,1.80
2022-08-01T23:12:01.011Z,2.00
2022-08-01T23:14:04.773Z,1.90
2022-08-01T23:16:08.985Z,1.60
2022-08-01T23:18:13.079Z,2.10
2022-08-01T23:20:16.898Z,1.80
2022-08-01T23:22:20.985Z,1.80
2022-08-01T23:24:24.555Z,1.50
2022-08-01T23:26:30.459Z,1.93
2022-08-01T23:28:33.936Z,2.00
2022-08-01T23:30:39.440Z,1.73
2022-08-01T23:32:42.718Z,1.90
2022-08-01T23:34:47.276Z,1.77
2022-08-01T23:36:50.343Z,2.30
2022-08-01T23:38:56.062Z,1.90
2022-08-01T23:41:00.684Z,1.77
2022-08-01T23:43:06.474Z,1.80
2022-08-01T23:45:22.130Z,1.90
2022-08-01T23:47:25.274Z,1.83
2022-08-01T23:49:28.519Z,2.20
2022-08-01T23:51:32.904Z,2.07
2022-08-01T23:53:38.597Z,2.00
2022-08-01T23:55:44.038Z,1.93
2022-08-01T23:57:47.764Z,2.20
2022-08-01T23:59:54.111Z,1.87
